createdAt,value
2018-09-27T00:01:30.636Z,9.50
2018-09-27T00:03:58.052Z,9.40
2018-09-27T00:06:25.485Z,9.40
2018-09-27T00:08:52.964Z,9.40
2018-09-27T00:11:20.380Z,9.40
2018-09-27T00:13:47.838Z,9.50
2018-09-27T00:16:15.324Z,9.40
2018-09-27T00:18:42.779Z,9.40
2018-09-27T00:21:10.219Z,9.40
2018-09-27T00:23:37.640Z,9.30
2018-09-27T00:26:05.205Z,9.20
2018-09-27T00:28:32.683Z,9.20
2018-09-27T00:31:00.101Z,9.20
2018-09-27T00:33:27.540Z,9.20
2018-09-27T00:35:54.988Z,9.20
2018-09-27T00:38:22.459Z,9.20
2018-09-27T00:40:49.970Z,9.20
2018-09-27T00:43:17.452Z,9.30
2018-09-27T00:45:44.879Z,9.10
2018-09-27T00:48:14.309Z,9.10
2018-09-27T00:50:41.751Z,9.20
2018-09-27T00:53:09.231Z,9.10
2018-09-27T00:55:36.639Z,9.20
2018-09-27T00:58:04.154Z,9.10
2018-09-27T01:00:31.639Z,9.10
2018-09-27T01:02:59.083Z,9.00
2018-09-27T01:05:26.507Z,9.00
2018-09-27T01:07:53.941Z,9.10
2018-09-27T01:10:21.413Z,9.00
2018-09-27T01:12:48.863Z,9.10
2018-09-27T01:15:16.343Z,9.00
2018-09-27T01:17:43.799Z,9.00
2018-09-27T01:20:11.259Z,8.90
2018-09-27T01:22:38.704Z,8.90
2018-09-27T01:25:06.332Z,8.90
2018-09-27T01:27:33.828Z,8.90
2018-09-27T01:30:01.383Z,8.90
2018-09-27T01:32:28.811Z,8.80
2018-09-27T01:34:56.231Z,8.80
2018-09-27T01:37:23.700Z,8.80
2018-09-27T01:39:51.193Z,8.80
2018-09-27T01:42:18.692Z,8.80
2018-09-27T01:44:46.135Z,8.80
2018-09-27T01:47:13.583Z,8.80
2018-09-27T01:49:40.999Z,8.80
2018-09-27T01:52:08.467Z,8.90
2018-09-27T01:54:36.053Z,8.80
2018-09-27T01:57:03.468Z,8.80
2018-09-27T01:59:30.913Z,8.80
2018-09-27T02:01:58.336Z,8.70
2018-09-27T02:04:25.860Z,8.70
2018-09-27T02:06:53.349Z,8.70
2018-09-27T02:09:20.756Z,8.70
2018-09-27T02:11:48.174Z,8.60
2018-09-27T02:14:15.606Z,8.50
2018-09-27T02:16:43.027Z,8.60
2018-09-27T02:19:10.470Z,8.50
2018-09-27T02:21:37.972Z,8.60
2018-09-27T02:24:05.390Z,8.50
2018-09-27T02:26:32.825Z,8.50
2018-09-27T02:29:00.241Z,8.40
2018-09-27T02:31:27.672Z,8.50
2018-09-27T02:33:55.116Z,8.50
2018-09-27T02:36:22.537Z,8.40
2018-09-27T02:38:49.972Z,8.60
2018-09-27T02:41:17.422Z,8.50
2018-09-27T02:43:44.853Z,8.50
2018-09-27T02:46:12.299Z,8.50
2018-09-27T02:48:39.752Z,8.40
2018-09-27T02:51:07.204Z,8.30
2018-09-27T02:53:35.472Z,8.40
2018-09-27T02:58:30.294Z,8.40
2018-09-27T03:00:57.710Z,8.30
2018-09-27T03:03:25.176Z,8.30
2018-09-27T03:05:52.611Z,8.20
2018-09-27T03:08:20.053Z,8.40
2018-09-27T03:10:47.507Z,8.40
2018-09-27T03:13:14.963Z,8.40
2018-09-27T03:15:42.443Z,8.20
2018-09-27T03:18:09.951Z,8.10
2018-09-27T03:20:37.359Z,8.10
2018-09-27T03:23:04.855Z,8.10
2018-09-27T03:25:32.316Z,8.10
2018-09-27T03:27:59.768Z,8.20
2018-09-27T03:30:27.302Z,8.00
2018-09-27T03:32:54.803Z,8.00
2018-09-27T03:35:22.240Z,8.10
2018-09-27T03:37:49.654Z,8.10
2018-09-27T03:40:17.352Z,8.10
2018-09-27T03:42:44.760Z,8.00
2018-09-27T03:45:12.180Z,8.10
2018-09-27T03:47:39.618Z,8.00
2018-09-27T03:50:07.083Z,8.10
2018-09-27T03:52:34.511Z,8.10
2018-09-27T03:55:02.111Z,8.10
2018-09-27T03:57:29.523Z,8.10
2018-09-27T03:59:56.985Z,8.10
2018-09-27T04:02:27.350Z,8.10
2018-09-27T04:04:54.763Z,8.00
2018-09-27T04:07:22.248Z,8.00
2018-09-27T04:09:49.758Z,8.00
2018-09-27T04:12:17.199Z,8.00
2018-09-27T04:14:49.071Z,8.00
2018-09-27T04:17:16.492Z,7.90
2018-09-27T04:19:43.912Z,7.80
2018-09-27T04:22:11.365Z,8.00
2018-09-27T04:24:38.795Z,8.00
2018-09-27T04:27:06.348Z,8.00
2018-09-27T04:29:33.803Z,7.90
2018-09-27T04:32:01.284Z,7.90
2018-09-27T04:34:28.692Z,7.90
2018-09-27T04:36:56.112Z,7.90
2018-09-27T04:39:23.555Z,7.90
2018-09-27T04:41:51.012Z,7.80
2018-09-27T04:44:18.491Z,7.70
2018-09-27T04:46:46.007Z,7.60
2018-09-27T04:49:14.859Z,7.60
2018-09-27T04:51:42.346Z,7.60
2018-09-27T04:54:09.746Z,7.60
2018-09-27T04:56:37.539Z,7.60
2018-09-27T04:59:05.833Z,7.60
2018-09-27T05:01:33.296Z,7.60
2018-09-27T05:04:00.737Z,7.60
2018-09-27T05:06:28.248Z,7.60
2018-09-27T05:08:55.888Z,7.60
2018-09-27T05:11:23.415Z,7.50
2018-09-27T05:13:50.892Z,7.70
2018-09-27T05:16:18.362Z,7.60
2018-09-27T05:18:45.854Z,7.60
2018-09-27T05:21:13.324Z,7.70
2018-09-27T05:23:40.766Z,7.70
2018-09-27T05:26:08.275Z,7.60
2018-09-27T05:28:35.719Z,7.60
2018-09-27T05:31:03.157Z,7.60
2018-09-27T05:33:30.638Z,7.60
2018-09-27T05:35:58.064Z,7.70
2018-09-27T05:38:25.561Z,7.60
2018-09-27T05:40:53.220Z,7.50
2018-09-27T05:43:20.656Z,7.40
2018-09-27T05:45:48.136Z,7.50
2018-09-27T05:48:15.564Z,7.50
2018-09-27T05:50:42.991Z,7.50
2018-09-27T05:53:10.448Z,7.50
2018-09-27T05:55:37.920Z,7.40
2018-09-27T05:58:05.661Z,7.40
2018-09-27T06:00:33.116Z,7.60
2018-09-27T06:03:00.544Z,7.60
2018-09-27T06:05:27.995Z,7.50
2018-09-27T06:07:55.478Z,7.40
2018-09-27T06:10:22.900Z,7.60
2018-09-27T06:12:50.362Z,7.50
2018-09-27T06:15:17.820Z,7.60
2018-09-27T06:17:45.273Z,7.70
2018-09-27T06:20:12.812Z,7.70
2018-09-27T06:22:40.263Z,7.70
2018-09-27T06:25:07.722Z,7.70
2018-09-27T06:27:35.246Z,7.80
2018-09-27T06:30:02.894Z,7.90
2018-09-27T06:32:30.401Z,7.80
2018-09-27T06:34:58.044Z,7.90
2018-09-27T06:37:25.457Z,8.00
2018-09-27T06:39:52.938Z,8.10
2018-09-27T06:42:20.891Z,8.10
2018-09-27T06:44:48.392Z,8.20
2018-09-27T06:47:15.908Z,8.30
2018-09-27T06:49:43.324Z,8.40
2018-09-27T06:52:11.648Z,8.40
2018-09-27T06:54:39.136Z,8.30
2018-09-27T06:57:06.590Z,8.40
2018-09-27T06:59:34.017Z,8.50
2018-09-27T07:02:01.480Z,8.60
2018-09-27T07:04:29.595Z,8.60
2018-09-27T07:06:57.031Z,8.70
2018-09-27T07:09:25.703Z,8.70
2018-09-27T07:11:53.769Z,8.80
2018-09-27T07:14:21.266Z,8.80
2018-09-27T07:16:48.706Z,8.80
2018-09-27T07:19:16.119Z,9.00
2018-09-27T07:21:43.971Z,8.90
2018-09-27T07:24:11.474Z,9.00
2018-09-27T07:26:38.992Z,9.20
2018-09-27T07:29:06.504Z,9.40
2018-09-27T07:31:34.899Z,9.20
2018-09-27T07:34:02.363Z,9.20
2018-09-27T07:36:29.848Z,9.30
2018-09-27T07:38:57.379Z,9.50
2018-09-27T07:41:25.243Z,9.60
2018-09-27T07:43:52.696Z,9.70
2018-09-27T07:46:20.112Z,9.80
2018-09-27T07:48:47.539Z,9.90
2018-09-27T07:51:15.007Z,10.00
2018-09-27T07:53:42.491Z,10.10
2018-09-27T07:56:09.975Z,10.30
2018-09-27T07:58:37.411Z,10.40
2018-09-27T08:01:04.916Z,10.50
2018-09-27T08:03:32.426Z,10.60
2018-09-27T08:05:59.861Z,10.70
2018-09-27T08:08:27.348Z,10.90
2018-09-27T08:10:54.793Z,11.10
2018-09-27T08:13:22.200Z,11.10
2018-09-27T08:15:49.640Z,11.40
2018-09-27T08:18:17.071Z,11.50
2018-09-27T08:20:44.676Z,11.70
2018-09-27T08:23:11.998Z,11.70
2018-09-27T08:25:39.444Z,12.00
2018-09-27T08:28:06.919Z,12.20
2018-09-27T08:30:34.402Z,12.40
2018-09-27T08:33:01.776Z,12.70
2018-09-27T08:35:29.216Z,13.00
2018-09-27T08:37:56.668Z,13.30
2018-09-27T08:40:24.144Z,13.40
2018-09-27T08:42:51.549Z,13.60
2018-09-27T08:45:19.279Z,13.70
2018-09-27T08:47:46.475Z,14.00
2018-09-27T08:50:13.908Z,14.10
2018-09-27T08:52:41.551Z,14.40
2018-09-27T08:55:08.984Z,14.50
2018-09-27T08:57:36.560Z,14.70
2018-09-27T09:00:04.623Z,14.90
2018-09-27T09:02:32.159Z,15.00
2018-09-27T09:04:59.660Z,15.10
2018-09-27T09:07:27.157Z,15.20
2018-09-27T09:09:54.660Z,15.40
2018-09-27T09:12:22.173Z,15.50
2018-09-27T09:14:49.671Z,15.60
2018-09-27T09:17:17.136Z,15.60
2018-09-27T09:19:44.624Z,15.70
2018-09-27T09:22:12.079Z,16.00
2018-09-27T09:24:39.666Z,16.20
2018-09-27T09:27:07.031Z,16.30
2018-09-27T09:29:34.548Z,16.40
2018-09-27T09:32:02.012Z,16.60
2018-09-27T09:34:29.438Z,16.70
2018-09-27T09:36:56.845Z,17.00
2018-09-27T09:39:24.287Z,17.20
2018-09-27T09:41:51.732Z,17.40
2018-09-27T09:44:20.978Z,17.60
2018-09-27T09:46:48.480Z,17.80
2018-09-27T09:49:16.264Z,17.90
2018-09-27T09:51:44.315Z,17.90
2018-09-27T09:54:11.763Z,18.00
2018-09-27T09:56:39.401Z,18.30
2018-09-27T09:59:09.009Z,18.50
2018-09-27T10:01:37.245Z,18.40
2018-09-27T10:04:04.765Z,18.70
2018-09-27T10:06:32.986Z,19.20
2018-09-27T10:09:00.563Z,19.40
2018-09-27T10:11:28.635Z,19.70
2018-09-27T10:13:56.255Z,20.10
2018-09-27T10:16:23.728Z,20.00
2018-09-27T10:18:51.362Z,20.00
2018-09-27T10:21:18.834Z,20.30
2018-09-27T10:23:47.291Z,20.70
2018-09-27T10:26:15.075Z,21.20
2018-09-27T10:28:42.511Z,21.20
2018-09-27T10:31:09.934Z,21.40
2018-09-27T10:33:37.363Z,21.70
2018-09-27T10:36:04.808Z,21.90
2018-09-27T10:38:32.238Z,22.20
2018-09-27T10:40:59.683Z,22.50
2018-09-27T10:43:27.139Z,22.60
2018-09-27T10:45:54.596Z,22.70
2018-09-27T10:48:22.063Z,23.10
2018-09-27T10:50:49.575Z,23.10
2018-09-27T10:53:16.995Z,23.40
2018-09-27T10:55:44.435Z,23.30
2018-09-27T10:58:11.860Z,23.90
2018-09-27T11:00:39.320Z,24.10
2018-09-27T11:03:06.916Z,24.50
2018-09-27T11:05:34.447Z,25.40
2018-09-27T11:08:01.807Z,26.60
2018-09-27T11:10:29.223Z,27.80
2018-09-27T11:12:56.654Z,29.10
2018-09-27T11:15:24.121Z,30.30
2018-09-27T11:17:51.548Z,30.90
2018-09-27T11:20:19.003Z,31.80
2018-09-27T11:22:46.443Z,32.10
2018-09-27T11:25:13.881Z,31.80
2018-09-27T11:27:41.406Z,32.20
2018-09-27T11:30:14.365Z,32.70
2018-09-27T11:32:44.240Z,33.10
2018-09-27T11:35:11.771Z,33.40
2018-09-27T11:37:39.945Z,34.00
2018-09-27T11:40:08.632Z,34.70
2018-09-27T11:42:36.116Z,34.60
2018-09-27T11:45:03.806Z,33.80
2018-09-27T11:47:31.383Z,33.00
2018-09-27T11:49:59.091Z,32.10
2018-09-27T11:52:26.495Z,31.40
2018-09-27T11:54:53.967Z,30.80
2018-09-27T11:57:21.363Z,30.70
2018-09-27T11:59:48.771Z,30.50
2018-09-27T12:02:16.298Z,29.80
2018-09-27T12:04:43.735Z,29.20
2018-09-27T12:07:11.135Z,29.20
2018-09-27T12:09:38.595Z,29.30
2018-09-27T12:12:06.172Z,29.10
2018-09-27T12:14:33.620Z,28.90
2018-09-27T12:17:01.023Z,28.70
2018-09-27T12:19:28.564Z,29.10
2018-09-27T12:21:55.996Z,29.40
2018-09-27T12:24:23.427Z,29.30
2018-09-27T12:26:50.860Z,28.90
2018-09-27T12:29:18.307Z,29.10
2018-09-27T12:31:45.735Z,29.10
2018-09-27T12:34:13.180Z,28.80
2018-09-27T12:36:40.692Z,28.60
2018-09-27T12:39:09.411Z,28.30
2018-09-27T12:41:36.912Z,28.30
2018-09-27T12:44:04.480Z,28.30
2018-09-27T12:46:32.046Z,28.50
2018-09-27T12:48:59.446Z,28.50
2018-09-27T12:51:26.952Z,29.30
2018-09-27T12:53:54.312Z,29.90
2018-09-27T12:56:21.912Z,30.40
2018-09-27T12:58:49.367Z,30.20
2018-09-27T13:01:16.827Z,29.90
2018-09-27T13:03:44.356Z,29.90
2018-09-27T13:06:11.803Z,29.90
2018-09-27T13:08:39.356Z,29.90
2018-09-27T13:11:06.724Z,29.90
2018-09-27T13:13:34.345Z,29.60
2018-09-27T13:16:01.698Z,29.40
2018-09-27T13:18:29.092Z,29.00
2018-09-27T13:20:56.485Z,28.60
2018-09-27T13:23:23.945Z,28.10
2018-09-27T13:25:51.355Z,27.70
2018-09-27T13:28:18.779Z,27.10
2018-09-27T13:30:46.183Z,26.40
2018-09-27T13:33:13.621Z,26.40
2018-09-27T13:35:41.070Z,26.70
2018-09-27T13:38:08.471Z,27.20
2018-09-27T13:40:35.928Z,27.70
2018-09-27T13:43:03.378Z,27.90
2018-09-27T13:45:30.783Z,27.70
2018-09-27T13:47:58.240Z,27.30
2018-09-27T13:50:25.704Z,27.00
2018-09-27T13:52:53.182Z,26.60
2018-09-27T13:55:21.431Z,26.40
2018-09-27T13:57:48.840Z,26.10
2018-09-27T14:00:16.284Z,25.60
2018-09-27T14:02:43.691Z,25.50
2018-09-27T14:05:11.140Z,25.00
2018-09-27T14:07:38.547Z,24.60
2018-09-27T14:10:06.014Z,24.00
2018-09-27T14:12:35.829Z,23.50
2018-09-27T14:15:03.320Z,23.10
2018-09-27T14:17:30.748Z,22.50
2018-09-27T14:19:58.198Z,22.20
2018-09-27T14:22:25.619Z,21.80
2018-09-27T14:24:53.091Z,21.50
2018-09-27T14:27:20.472Z,21.40
2018-09-27T14:29:47.887Z,21.00
2018-09-27T14:32:15.382Z,21.00
2018-09-27T14:34:42.725Z,20.90
2018-09-27T14:37:10.183Z,20.60
2018-09-27T14:39:37.628Z,20.60
2018-09-27T14:42:05.098Z,20.50
2018-09-27T14:44:32.539Z,20.40
2018-09-27T14:47:00.000Z,20.30
2018-09-27T14:49:27.410Z,20.20
2018-09-27T14:51:54.839Z,20.10
2018-09-27T14:54:22.292Z,20.00
2018-09-27T14:56:49.964Z,19.90
2018-09-27T14:59:17.441Z,19.90
2018-09-27T15:01:45.056Z,19.80
2018-09-27T15:04:12.515Z,19.70
2018-09-27T15:06:39.993Z,19.60
2018-09-27T15:09:09.445Z,19.70
2018-09-27T15:11:37.019Z,19.50
2018-09-27T15:14:04.513Z,19.60
2018-09-27T15:16:31.995Z,19.70
2018-09-27T15:18:59.415Z,19.60
2018-09-27T15:21:26.851Z,19.60
2018-09-27T15:23:54.290Z,19.50
2018-09-27T15:26:21.691Z,19.40
2018-09-27T15:28:49.143Z,19.30
2018-09-27T15:31:16.596Z,19.30
2018-09-27T15:33:44.031Z,19.20
2018-09-27T15:36:11.472Z,19.10
2018-09-27T15:38:38.959Z,19.30
2018-09-27T15:41:06.432Z,19.20
2018-09-27T15:43:33.843Z,19.30
2018-09-27T15:46:01.251Z,19.30
2018-09-27T15:48:28.723Z,19.10
2018-09-27T15:50:56.191Z,19.10
2018-09-27T15:53:23.636Z,19.00
2018-09-27T15:55:51.087Z,19.00
2018-09-27T15:58:18.536Z,18.90
2018-09-27T16:00:45.967Z,18.90
2018-09-27T16:03:13.684Z,18.80
2018-09-27T16:05:41.148Z,18.60
2018-09-27T16:08:08.572Z,18.70
2018-09-27T16:10:36.023Z,18.60
2018-09-27T16:13:03.469Z,18.60
2018-09-27T16:15:30.939Z,18.50
2018-09-27T16:17:58.399Z,18.60
2018-09-27T16:20:25.860Z,18.50
2018-09-27T16:22:53.351Z,18.60
2018-09-27T16:25:21.286Z,18.60
2018-09-27T16:27:48.724Z,18.60
2018-09-27T16:30:16.196Z,18.50
2018-09-27T16:32:43.656Z,18.40
2018-09-27T16:35:11.128Z,18.30
2018-09-27T16:37:38.588Z,18.10
2018-09-27T16:40:06.280Z,18.20
2018-09-27T16:42:33.750Z,18.20
2018-09-27T16:45:01.203Z,18.10
2018-09-27T16:47:29.236Z,18.00
2018-09-27T16:49:56.694Z,18.00
2018-09-27T16:52:24.313Z,18.00
2018-09-27T16:54:51.740Z,17.90
2018-09-27T16:57:19.159Z,17.80
2018-09-27T16:59:47.071Z,17.80
2018-09-27T17:02:14.563Z,17.60
2018-09-27T17:04:42.115Z,17.50
2018-09-27T17:07:09.547Z,17.40
2018-09-27T17:09:37.005Z,17.30
2018-09-27T17:12:04.428Z,17.20
2018-09-27T17:14:31.872Z,17.20
2018-09-27T17:16:59.296Z,17.10
2018-09-27T17:19:26.743Z,17.00
2018-09-27T17:21:54.235Z,16.90
2018-09-27T17:24:21.693Z,16.80
2018-09-27T17:26:49.154Z,16.70
2018-09-27T17:29:16.595Z,16.60
2018-09-27T17:31:44.265Z,16.60
2018-09-27T17:34:12.012Z,16.60
2018-09-27T17:36:39.504Z,16.50
2018-09-27T17:39:07.503Z,16.30
2018-09-27T17:41:34.928Z,16.40
2018-09-27T17:44:02.459Z,16.30
2018-09-27T17:46:29.914Z,16.30
2018-09-27T17:48:58.459Z,16.30
2018-09-27T17:51:26.828Z,16.20
2018-09-27T17:53:56.295Z,16.00
2018-09-27T17:56:24.043Z,16.00
2018-09-27T17:58:51.518Z,15.90
2018-09-27T18:01:18.894Z,16.00
2018-09-27T18:03:46.340Z,15.90
2018-09-27T18:06:13.777Z,15.90
2018-09-27T18:08:41.211Z,15.80
2018-09-27T18:11:09.003Z,15.80
2018-09-27T18:13:36.741Z,15.70
2018-09-27T18:16:04.290Z,15.70
2018-09-27T18:18:31.764Z,15.60
2018-09-27T18:20:59.558Z,15.50
2018-09-27T18:23:27.018Z,15.50
2018-09-27T18:25:54.682Z,15.40
2018-09-27T18:28:22.151Z,15.50
2018-09-27T18:30:49.594Z,15.40
2018-09-27T18:33:17.552Z,15.30
2018-09-27T18:35:46.738Z,15.20
2018-09-27T18:38:15.554Z,15.30
2018-09-27T18:40:42.823Z,15.10
2018-09-27T18:43:10.312Z,15.20
2018-09-27T18:45:37.928Z,15.10
2018-09-27T18:48:05.518Z,15.10
2018-09-27T18:50:33.246Z,15.10
2018-09-27T18:53:00.713Z,14.90
2018-09-27T18:55:28.123Z,14.90
2018-09-27T18:57:55.623Z,14.90
2018-09-27T19:00:23.087Z,14.90
2018-09-27T19:02:50.511Z,14.70
2018-09-27T19:05:18.180Z,14.80
2018-09-27T19:07:45.619Z,14.70
2018-09-27T19:10:13.105Z,14.70
2018-09-27T19:12:40.515Z,14.70
2018-09-27T19:15:07.819Z,14.60
2018-09-27T19:17:35.263Z,14.60
2018-09-27T19:20:02.946Z,14.50
2018-09-27T19:22:30.412Z,14.50
2018-09-27T19:24:59.863Z,14.40
2018-09-27T19:27:27.790Z,14.30
2018-09-27T19:29:55.473Z,14.30
2018-09-27T19:32:23.028Z,14.30
2018-09-27T19:34:51.283Z,14.30
2018-09-27T19:37:18.831Z,14.20
2018-09-27T19:39:46.375Z,14.10
2018-09-27T19:42:14.115Z,14.20
2018-09-27T19:44:41.535Z,13.90
2018-09-27T19:47:08.959Z,14.00
2018-09-27T19:49:36.652Z,14.00
2018-09-27T19:52:04.111Z,14.00
2018-09-27T19:54:31.874Z,14.00
2018-09-27T19:56:59.303Z,13.90
2018-09-27T19:59:27.148Z,13.90
2018-09-27T20:01:54.584Z,14.00
2018-09-27T20:04:22.584Z,13.80
2018-09-27T20:06:50.584Z,13.80
2018-09-27T20:09:18.121Z,13.80
2018-09-27T20:11:45.548Z,13.70
2018-09-27T20:14:13.000Z,13.80
2018-09-27T20:16:40.695Z,13.70
2018-09-27T20:19:08.323Z,13.60
2018-09-27T20:21:35.903Z,13.70
2018-09-27T20:24:04.402Z,13.60
2018-09-27T20:26:31.824Z,13.40
2018-09-27T20:28:59.232Z,13.60
2018-09-27T20:31:26.655Z,13.50
2018-09-27T20:33:54.170Z,13.50
2018-09-27T20:36:21.760Z,13.50
2018-09-27T20:38:49.188Z,13.50
2018-09-27T20:41:16.621Z,13.40
2018-09-27T20:43:44.042Z,13.40
2018-09-27T20:46:11.523Z,13.50
2018-09-27T20:48:38.967Z,13.30
2018-09-27T20:51:06.434Z,13.30
2018-09-27T20:53:33.884Z,13.10
2018-09-27T20:56:01.308Z,13.20
2018-09-27T20:58:28.804Z,13.20
2018-09-27T21:00:56.344Z,13.20
2018-09-27T21:03:23.983Z,13.30
2018-09-27T21:05:51.440Z,13.10
2018-09-27T21:08:18.910Z,13.20
2018-09-27T21:10:46.395Z,13.20
2018-09-27T21:13:13.836Z,13.20
2018-09-27T21:15:41.255Z,13.10
2018-09-27T21:18:08.828Z,13.10
2018-09-27T21:20:36.272Z,13.10
2018-09-27T21:23:03.749Z,12.90
2018-09-27T21:25:31.191Z,12.80
2018-09-27T21:27:58.692Z,12.80
2018-09-27T21:30:26.316Z,12.70
2018-09-27T21:32:53.819Z,12.80
2018-09-27T21:35:21.380Z,12.60
2018-09-27T21:37:48.800Z,12.80
2018-09-27T21:40:16.258Z,12.80
2018-09-27T21:42:43.727Z,12.80
2018-09-27T21:45:11.173Z,12.70
2018-09-27T21:47:38.668Z,12.70
2018-09-27T21:50:06.121Z,12.70
2018-09-27T21:52:33.547Z,12.60
2018-09-27T21:55:00.984Z,12.60
2018-09-27T21:57:28.483Z,12.50
2018-09-27T21:59:55.920Z,12.50
2018-09-27T22:02:23.328Z,12.50
2018-09-27T22:04:50.772Z,12.50
2018-09-27T22:07:18.203Z,12.40
2018-09-27T22:09:45.681Z,12.40
2018-09-27T22:12:13.156Z,12.40
2018-09-27T22:14:40.575Z,12.50
2018-09-27T22:17:08.066Z,12.40
2018-09-27T22:19:35.545Z,12.40
2018-09-27T22:22:02.973Z,12.40
2018-09-27T22:24:30.452Z,12.30
2018-09-27T22:26:57.891Z,12.30
2018-09-27T22:29:25.416Z,12.30
2018-09-27T22:31:52.840Z,12.30
2018-09-27T22:34:20.272Z,12.30
2018-09-27T22:36:47.805Z,12.30
2018-09-27T22:39:15.281Z,12.20
2018-09-27T22:41:42.732Z,12.20
2018-09-27T22:44:10.170Z,12.30
2018-09-27T22:46:37.638Z,12.20
2018-09-27T22:49:05.043Z,12.30
2018-09-27T22:51:32.608Z,12.20
2018-09-27T22:54:00.115Z,12.20
2018-09-27T22:56:27.553Z,12.10
2018-09-27T22:58:54.979Z,12.10
2018-09-27T23:01:22.411Z,12.10
2018-09-27T23:03:49.827Z,12.00
2018-09-27T23:06:17.283Z,12.10
2018-09-27T23:08:44.675Z,12.00
2018-09-27T23:11:12.148Z,12.00
2018-09-27T23:13:39.543Z,12.00
2018-09-27T23:16:07.104Z,12.00
2018-09-27T23:18:34.557Z,11.90
2018-09-27T23:21:02.018Z,11.90
2018-09-27T23:23:29.474Z,11.90
2018-09-27T23:25:56.990Z,11.90
2018-09-27T23:28:24.371Z,11.90
2018-09-27T23:30:51.819Z,11.90
2018-09-27T23:33:19.732Z,11.80
2018-09-27T23:35:47.167Z,11.80
2018-09-27T23:38:14.583Z,11.70
2018-09-27T23:40:42.016Z,11.70
2018-09-27T23:43:09.431Z,11.60
2018-09-27T23:45:36.895Z,11.60
2018-09-27T23:48:04.339Z,11.70
2018-09-27T23:50:31.787Z,11.60
2018-09-27T23:52:59.206Z,11.70
2018-09-27T23:55:26.638Z,11.70
2018-09-27T23:57:54.092Z,11.60
